Time;durP1;ratioP1;P1;durP2;ratioP2;P2;SDS_P1;SDS_P2;PMS_P1;PMS_P2;Temp;Humidity;BMP_temperature;BMP_pressure;BME280_temperature;BME280_humidity;BME280_pressure;Samples;Min_cycle;Max_cycle;Signal;HPM_P1;HPM_P2
2023/10/07 00:00:28;;;;;;;;;;;16.50;99.90;;;;;;7334532;19;108826;-66
2023/10/07 00:02:55;;;;;;;;;;;16.50;99.90;;;;;;7334860;19;109409;-66
2023/10/07 00:06:00;;;;;;;;;;;16.50;99.90;;;;;;7341243;19;110587;-66
2023/10/07 00:08:26;;;;;;;;;;;16.50;99.90;;;;;;7332805;19;110170;-66
2023/10/07 00:10:58;;;;;;;;;;;16.50;99.90;;;;;;7334146;19;109550;-66
2023/10/07 00:13:30;;;;;;;;;;;16.50;99.90;;;;;;7332853;19;108715;-66
2023/10/07 00:15:58;;;;;;;;;;;16.50;99.90;;;;;;7333990;19;110986;-66
2023/10/07 00:18:26;;;;;;;;;;;16.50;99.90;;;;;;7335250;19;110517;-66
2023/10/07 00:20:55;;;;;;;;;;;16.50;99.90;;;;;;7334870;19;108917;-66
2023/10/07 00:23:26;;;;;;;;;;;16.50;99.90;;;;;;7333244;19;109453;-66
2023/10/07 00:25:54;;;;;;;;;;;16.50;99.90;;;;;;7340077;19;109729;-66
2023/10/07 00:28:32;;;;;;;;;;;16.50;99.90;;;;;;7331595;19;110312;-66
2023/10/07 00:31:03;;;;;;;;;;;16.50;99.90;;;;;;7333260;19;112397;-66
2023/10/07 00:33:50;;;;;;;;;;;16.40;99.90;;;;;;7332616;19;108711;-66
2023/10/07 00:36:41;;;;;;;;;;;16.40;99.90;;;;;;7331891;19;109803;-66
2023/10/07 00:39:08;;;;;;;;;;;16.40;99.90;;;;;;7332033;19;110311;-66
2023/10/07 00:42:10;;;;;;;;;;;16.40;99.90;;;;;;7332920;19;109232;-66
2023/10/07 00:44:32;;;;;;;;;;;16.40;99.90;;;;;;7334241;19;108914;-68
2023/10/07 00:49:50;;;;;;;;;;;16.40;99.90;;;;;;7340611;19;108798;-66
2023/10/07 00:52:28;;;;;;;;;;;16.40;99.90;;;;;;7334338;19;110616;-66
2023/10/07 01:00:01;;;;;;;;;;;16.40;99.90;;;;;;7331584;19;110522;-66
2023/10/07 01:02:31;;;;;;;;;;;16.40;99.90;;;;;;7326974;19;109031;-66
2023/10/07 01:05:00;;;;;;;;;;;16.40;99.90;;;;;;7329050;19;108572;-66
2023/10/07 01:07:28;;;;;;;;;;;16.40;99.90;;;;;;7328303;19;110695;-66
2023/10/07 01:10:01;;;;;;;;;;;16.40;99.90;;;;;;7330286;19;108791;-65
2023/10/07 01:12:35;;;;;;;;;;;16.30;99.90;;;;;;7330383;19;108963;-66
2023/10/07 01:15:04;;;;;;;;;;;16.30;99.90;;;;;;7331388;19;109761;-65
2023/10/07 01:17:31;;;;;;;;;;;16.30;99.90;;;;;;7333873;19;109055;-66
2023/10/07 01:20:05;;;;;;;;;;;16.30;99.90;;;;;;7334685;19;110112;-66
2023/10/07 01:22:35;;;;;;;;;;;16.30;99.90;;;;;;7333387;19;110248;-66
2023/10/07 01:25:09;;;;;;;;;;;16.30;99.90;;;;;;7333264;19;108840;-66
2023/10/07 01:27:49;;;;;;;;;;;16.30;99.90;;;;;;7333305;19;109485;-66
2023/10/07 01:30:16;;;;;;;;;;;16.30;99.90;;;;;;7334357;19;108445;-66
2023/10/07 01:33:04;;;;;;;;;;;16.30;99.90;;;;;;7331582;19;110334;-66
2023/10/07 01:35:39;;;;;;;;;;;16.30;99.90;;;;;;7340774;19;109295;-66
2023/10/07 01:38:09;;;;;;;;;;;16.30;99.90;;;;;;7340992;19;109127;-66
2023/10/07 01:41:05;;;;;;;;;;;16.40;99.90;;;;;;7338975;19;113065;-66
2023/10/07 01:43:26;;;;;;;;;;;16.40;99.90;;;;;;7339491;19;110416;-66
2023/10/07 01:45:55;;;;;;;;;;;16.40;99.90;;;;;;7339833;19;108855;-67
2023/10/07 01:48:22;;;;;;;;;;;16.40;99.90;;;;;;7336584;19;109801;-66
2023/10/07 01:50:51;;;;;;;;;;;16.40;99.90;;;;;;7337393;19;109004;-66
2023/10/07 01:53:18;;;;;;;;;;;16.40;99.90;;;;;;7339390;19;108949;-66
2023/10/07 01:55:45;;;;;;;;;;;16.40;99.90;;;;;;7338135;19;110548;-66
2023/10/07 01:58:14;;;;;;;;;;;16.40;99.90;;;;;;7345620;19;108637;-66
2023/10/07 02:00:45;;;;;;;;;;;16.40;99.90;;;;;;7337026;19;111705;-66
2023/10/07 02:03:16;;;;;;;;;;;16.40;99.90;;;;;;7338682;19;108365;-66
2023/10/07 02:05:52;;;;;;;;;;;16.40;99.90;;;;;;7340029;19;109040;-66
2023/10/07 02:08:21;;;;;;;;;;;16.40;99.90;;;;;;7339049;19;110183;-66
2023/10/07 02:10:49;;;;;;;;;;;16.40;99.90;;;;;;7336501;19;109223;-65
2023/10/07 02:13:21;;;;;;;;;;;16.40;99.90;;;;;;7339474;19;109577;-66
2023/10/07 02:15:52;;;;;;;;;;;16.40;99.90;;;;;;7337530;19;110657;-66
2023/10/07 02:18:19;;;;;;;;;;;16.40;99.90;;;;;;7335715;19;108936;-65
2023/10/07 02:20:52;;;;;;;;;;;16.50;99.90;;;;;;7338124;19;109383;-66
2023/10/07 02:23:35;;;;;;;;;;;16.50;99.90;;;;;;7336195;19;109585;-68
2023/10/07 02:26:06;;;;;;;;;;;16.50;99.90;;;;;;7340723;19;108991;-66
2023/10/07 02:28:34;;;;;;;;;;;16.50;99.90;;;;;;7340846;19;111880;-66
2023/10/07 02:31:07;;;;;;;;;;;16.50;99.90;;;;;;7338571;19;108718;-66
2023/10/07 02:33:57;;;;;;;;;;;16.50;99.90;;;;;;7337411;19;111630;-66
2023/10/07 02:36:28;;;;;;;;;;;16.50;99.90;;;;;;7335942;19;110455;-66
2023/10/07 02:38:56;;;;;;;;;;;16.50;99.90;;;;;;7338900;19;110234;-66
2023/10/07 02:41:24;;;;;;;;;;;16.50;99.90;;;;;;7343848;19;109271;-66
2023/10/07 02:43:51;;;;;;;;;;;16.50;99.90;;;;;;7337263;19;109836;-68
2023/10/07 02:46:32;;;;;;;;;;;16.50;99.90;;;;;;7338411;19;108692;-70
2023/10/07 02:49:09;;;;;;;;;;;16.60;99.90;;;;;;7335113;19;109118;-69
2023/10/07 02:51:45;;;;;;;;;;;16.50;99.90;;;;;;7339432;19;108669;-66
2023/10/07 02:54:18;;;;;;;;;;;16.50;99.90;;;;;;7339229;19;109083;-67
2023/10/07 02:57:34;;;;;;;;;;;16.50;99.90;;;;;;7337948;19;109646;-66
2023/10/07 02:59:50;;;;;;;;;;;16.60;99.90;;;;;;7341737;19;109277;-66
2023/10/07 03:04:58;;;;;;;;;;;16.60;99.90;;;;;;7342220;19;112501;-66
2023/10/07 03:07:26;;;;;;;;;;;16.60;99.90;;;;;;7335433;19;109405;-67
2023/10/07 03:12:47;;;;;;;;;;;16.60;99.90;;;;;;7333878;19;108965;-65
2023/10/07 03:15:28;;;;;;;;;;;16.60;99.90;;;;;;7337953;19;108879;-65
2023/10/07 03:17:56;;;;;;;;;;;16.60;99.90;;;;;;7338276;19;109703;-66
2023/10/07 03:20:27;;;;;;;;;;;16.70;99.90;;;;;;7336516;19;109217;-66
2023/10/07 03:23:14;;;;;;;;;;;16.60;99.90;;;;;;7335196;19;110184;-67
2023/10/07 03:28:24;;;;;;;;;;;16.60;99.90;;;;;;7341744;19;108876;-67
2023/10/07 03:30:56;;;;;;;;;;;16.60;99.90;;;;;;7336056;19;109238;-66
2023/10/07 03:33:42;;;;;;;;;;;16.60;99.90;;;;;;7334904;19;108968;-67
2023/10/07 03:36:41;;;;;;;;;;;16.60;99.90;;;;;;7336584;19;112735;-67
2023/10/07 03:41:52;;;;;;;;;;;16.70;99.90;;;;;;7336175;19;109569;-65
2023/10/07 03:44:20;;;;;;;;;;;16.70;99.90;;;;;;7336992;19;109382;-66
2023/10/07 03:46:48;;;;;;;;;;;16.70;99.90;;;;;;7331232;19;109222;-66
2023/10/07 03:49:16;;;;;;;;;;;16.70;99.90;;;;;;7335504;19;109632;-66
2023/10/07 03:51:45;;;;;;;;;;;16.70;99.90;;;;;;7339855;19;109883;-68
2023/10/07 03:54:15;;;;;;;;;;;16.70;99.90;;;;;;7338969;19;108489;-66
2023/10/07 03:56:42;;;;;;;;;;;16.70;99.90;;;;;;7335329;19;110378;-66
2023/10/07 03:59:14;;;;;;;;;;;16.70;99.90;;;;;;7334562;19;110169;-66
2023/10/07 04:01:45;;;;;;;;;;;16.70;99.90;;;;;;7334574;19;108953;-66
2023/10/07 04:04:12;;;;;;;;;;;16.70;99.90;;;;;;7334414;19;109135;-66
2023/10/07 04:06:40;;;;;;;;;;;16.70;99.90;;;;;;7335844;19;109661;-67
2023/10/07 04:09:08;;;;;;;;;;;16.70;99.90;;;;;;7336621;19;108603;-66
2023/10/07 04:11:37;;;;;;;;;;;16.70;99.90;;;;;;7337752;19;109467;-66
2023/10/07 04:14:07;;;;;;;;;;;16.80;99.90;;;;;;7339436;19;109135;-66
2023/10/07 04:16:36;;;;;;;;;;;16.70;99.90;;;;;;7336636;19;109733;-66
2023/10/07 04:21:58;;;;;;;;;;;16.70;99.90;;;;;;7332488;19;108880;-67
2023/10/07 04:24:28;;;;;;;;;;;16.70;99.90;;;;;;7334381;19;110212;-68
2023/10/07 04:27:05;;;;;;;;;;;16.70;99.90;;;;;;7335794;19;109863;-67
2023/10/07 04:29:33;;;;;;;;;;;16.80;99.90;;;;;;7337157;19;111878;-67
2023/10/07 04:32:19;;;;;;;;;;;16.80;99.90;;;;;;7336449;19;110603;-68
2023/10/07 04:37:51;;;;;;;;;;;16.80;99.90;;;;;;7340284;19;108832;-69
2023/10/07 04:45:48;;;;;;;;;;;16.80;99.90;;;;;;7336241;19;109480;-68
2023/10/07 04:48:40;;;;;;;;;;;16.80;99.90;;;;;;7332516;19;110281;-67
2023/10/07 04:51:12;;;;;;;;;;;16.80;99.90;;;;;;7332318;19;109173;-69
2023/10/07 04:53:44;;;;;;;;;;;16.80;99.90;;;;;;7332456;19;110782;-70
2023/10/07 04:56:20;;;;;;;;;;;16.80;99.90;;;;;;7332594;19;110545;-67
2023/10/07 04:58:48;;;;;;;;;;;16.80;99.90;;;;;;7337916;19;111046;-69
2023/10/07 05:01:33;;;;;;;;;;;16.80;99.90;;;;;;7335303;19;109482;-71
2023/10/07 05:04:05;;;;;;;;;;;16.80;99.90;;;;;;7335412;19;108600;-70
2023/10/07 05:06:34;;;;;;;;;;;16.80;99.90;;;;;;7331812;19;108811;-72
2023/10/07 05:09:18;;;;;;;;;;;16.80;99.90;;;;;;7336404;19;109788;-72
2023/10/07 05:11:48;;;;;;;;;;;16.80;99.90;;;;;;7333014;19;109108;-67
2023/10/07 05:14:22;;;;;;;;;;;16.80;99.90;;;;;;7333212;19;108962;-69
2023/10/07 05:16:49;;;;;;;;;;;16.80;99.90;;;;;;7333246;19;109165;-67
2023/10/07 05:19:22;;;;;;;;;;;16.80;99.90;;;;;;7333503;19;108738;-66
2023/10/07 05:21:59;;;;;;;;;;;16.80;99.90;;;;;;7337859;19;114812;-66
2023/10/07 05:24:29;;;;;;;;;;;16.80;99.90;;;;;;7331836;19;109807;-67
2023/10/07 05:26:59;;;;;;;;;;;16.80;99.90;;;;;;7331256;19;108928;-69
2023/10/07 05:29:28;;;;;;;;;;;16.80;99.90;;;;;;7334122;19;109704;-67
2023/10/07 05:31:56;;;;;;;;;;;16.80;99.90;;;;;;7333440;19;110024;-67
2023/10/07 05:34:28;;;;;;;;;;;16.80;99.90;;;;;;7332740;19;108758;-67
2023/10/07 05:37:01;;;;;;;;;;;16.80;99.90;;;;;;7331292;19;110196;-68
2023/10/07 05:39:28;;;;;;;;;;;16.80;99.90;;;;;;7332919;19;110332;-67
2023/10/07 05:41:56;;;;;;;;;;;16.80;99.90;;;;;;7332368;19;108750;-68
2023/10/07 05:44:23;;;;;;;;;;;16.90;99.90;;;;;;7339026;19;109571;-67
2023/10/07 05:46:50;;;;;;;;;;;16.80;99.90;;;;;;7334287;19;109888;-67
2023/10/07 05:49:18;;;;;;;;;;;16.80;99.90;;;;;;7333897;19;109960;-67
2023/10/07 05:51:46;;;;;;;;;;;16.80;99.90;;;;;;7331261;19;109862;-67
2023/10/07 05:54:18;;;;;;;;;;;16.80;99.90;;;;;;7336075;19;108830;-67
2023/10/07 05:56:48;;;;;;;;;;;16.90;99.90;;;;;;7331356;19;109073;-68
2023/10/07 05:59:15;;;;;;;;;;;16.80;99.90;;;;;;7336268;19;109477;-67
2023/10/07 06:01:43;;;;;;;;;;;16.80;99.90;;;;;;7331651;19;109938;-67
2023/10/07 06:04:11;;;;;;;;;;;16.80;99.90;;;;;;7334450;19;109707;-66
2023/10/07 06:06:42;;;;;;;;;;;16.80;99.90;;;;;;7335687;19;108761;-67
2023/10/07 06:09:13;;;;;;;;;;;16.80;99.90;;;;;;7335722;19;110379;-67
2023/10/07 06:11:42;;;;;;;;;;;16.80;99.90;;;;;;7330082;19;108936;-67
2023/10/07 06:14:11;;;;;;;;;;;16.80;99.90;;;;;;7331694;19;108862;-67
2023/10/07 06:16:44;;;;;;;;;;;16.80;99.90;;;;;;7334892;19;111062;-67
2023/10/07 06:19:14;;;;;;;;;;;16.80;99.90;;;;;;7334236;19;108964;-67
2023/10/07 06:21:50;;;;;;;;;;;16.80;99.90;;;;;;7334957;19;111385;-67
2023/10/07 06:24:21;;;;;;;;;;;16.80;99.90;;;;;;7337207;19;109147;-66
2023/10/07 06:26:48;;;;;;;;;;;16.80;99.90;;;;;;7337621;19;108565;-66
2023/10/07 06:29:19;;;;;;;;;;;16.80;99.90;;;;;;7343568;19;109544;-69
2023/10/07 06:31:55;;;;;;;;;;;16.80;99.90;;;;;;7335991;19;109151;-66
2023/10/07 06:34:25;;;;;;;;;;;16.80;99.90;;;;;;7337447;19;110108;-66
2023/10/07 06:36:54;;;;;;;;;;;16.80;99.90;;;;;;7339661;19;111375;-66
2023/10/07 06:39:27;;;;;;;;;;;16.80;99.90;;;;;;7337763;19;111121;-66
2023/10/07 06:41:57;;;;;;;;;;;16.90;99.90;;;;;;7338052;19;111032;-66
2023/10/07 06:44:27;;;;;;;;;;;16.90;99.90;;;;;;7335187;19;110155;-67
2023/10/07 06:46:57;;;;;;;;;;;16.90;99.90;;;;;;7337611;19;110629;-65
2023/10/07 06:49:26;;;;;;;;;;;16.90;99.90;;;;;;7341627;19;108245;-66
2023/10/07 06:51:54;;;;;;;;;;;16.90;99.90;;;;;;7335946;19;111488;-66
2023/10/07 06:54:23;;;;;;;;;;;16.90;99.90;;;;;;7338054;19;109183;-68
2023/10/07 06:56:51;;;;;;;;;;;16.90;99.90;;;;;;7335284;19;109253;-66
2023/10/07 06:59:27;;;;;;;;;;;16.90;99.90;;;;;;7337100;19;110509;-66
2023/10/07 07:01:55;;;;;;;;;;;17.00;99.90;;;;;;7337448;19;113282;-66
2023/10/07 07:04:23;;;;;;;;;;;17.00;99.90;;;;;;7338528;19;110036;-66
2023/10/07 07:07:16;;;;;;;;;;;17.00;99.90;;;;;;7336071;19;109256;-66
2023/10/07 07:12:16;;;;;;;;;;;17.00;99.90;;;;;;7340129;19;109647;-67
2023/10/07 07:14:51;;;;;;;;;;;17.10;99.90;;;;;;7335061;19;109482;-67
2023/10/07 07:17:29;;;;;;;;;;;17.10;99.90;;;;;;7335035;19;110194;-67
2023/10/07 07:22:47;;;;;;;;;;;17.10;99.90;;;;;;7337466;19;113499;-67
2023/10/07 07:25:29;;;;;;;;;;;17.20;99.90;;;;;;7335353;19;109394;-66
2023/10/07 07:28:00;;;;;;;;;;;17.20;99.90;;;;;;7337732;19;110486;-67
2023/10/07 07:30:30;;;;;;;;;;;17.20;99.90;;;;;;7333714;19;109406;-67
2023/10/07 07:32:59;;;;;;;;;;;17.20;99.90;;;;;;7331858;19;110442;-67
2023/10/07 07:35:39;;;;;;;;;;;17.20;99.90;;;;;;7341052;19;111143;-66
2023/10/07 07:40:52;;;;;;;;;;;17.20;99.90;;;;;;7337161;19;109321;-67
2023/10/07 07:43:19;;;;;;;;;;;17.20;99.90;;;;;;7336085;19;109500;-67
2023/10/07 07:45:46;;;;;;;;;;;17.20;99.90;;;;;;7332279;19;110212;-67
2023/10/07 07:48:16;;;;;;;;;;;17.20;99.90;;;;;;7333993;19;108419;-67
2023/10/07 07:50:43;;;;;;;;;;;17.30;99.90;;;;;;7332828;19;110516;-67
2023/10/07 07:53:12;;;;;;;;;;;17.30;99.90;;;;;;7336325;19;109682;-67
2023/10/07 07:55:46;;;;;;;;;;;17.40;99.90;;;;;;7336599;19;109862;-67
2023/10/07 07:58:13;;;;;;;;;;;17.40;99.90;;;;;;7344068;19;109533;-67
2023/10/07 08:00:44;;;;;;;;;;;17.50;99.90;;;;;;7335005;19;108772;-67
2023/10/07 08:03:12;;;;;;;;;;;17.60;99.90;;;;;;7335203;19;109220;-67
2023/10/07 08:05:41;;;;;;;;;;;17.70;99.90;;;;;;7334096;19;109498;-67
2023/10/07 08:08:18;;;;;;;;;;;17.70;99.90;;;;;;7332773;19;110895;-67
2023/10/07 08:10:46;;;;;;;;;;;17.80;99.90;;;;;;7332111;19;110366;-67
2023/10/07 08:13:17;;;;;;;;;;;17.80;99.90;;;;;;7336782;19;109200;-67
2023/10/07 08:15:47;;;;;;;;;;;17.90;99.90;;;;;;7333465;19;109075;-67
2023/10/07 08:18:15;;;;;;;;;;;18.00;99.90;;;;;;7336168;19;109557;-67
2023/10/07 08:20:45;;;;;;;;;;;18.00;99.90;;;;;;7340645;19;110576;-67
2023/10/07 08:23:24;;;;;;;;;;;18.10;99.90;;;;;;7335497;19;108677;-67
2023/10/07 08:25:57;;;;;;;;;;;18.20;99.90;;;;;;7332237;19;109281;-67
2023/10/07 08:28:41;;;;;;;;;;;18.20;99.90;;;;;;7336778;19;109644;-67
2023/10/07 08:31:22;;;;;;;;;;;18.30;99.90;;;;;;7334376;19;110605;-67
2023/10/07 08:34:09;;;;;;;;;;;18.40;99.90;;;;;;7331611;19;109328;-67
2023/10/07 08:36:47;;;;;;;;;;;18.40;99.90;;;;;;7330148;19;110478;-66
2023/10/07 08:39:18;;;;;;;;;;;18.50;99.90;;;;;;7334453;19;109691;-67
2023/10/07 08:41:52;;;;;;;;;;;18.60;99.90;;;;;;7328836;19;111754;-67
2023/10/07 08:44:28;;;;;;;;;;;18.70;99.90;;;;;;7339857;19;108778;-67
2023/10/07 08:47:03;;;;;;;;;;;18.80;99.90;;;;;;7329815;19;109903;-67
2023/10/07 08:49:35;;;;;;;;;;;18.80;99.90;;;;;;7331014;19;110824;-67
2023/10/07 08:52:08;;;;;;;;;;;18.90;99.90;;;;;;7337952;19;110204;-68
2023/10/07 08:54:44;;;;;;;;;;;18.90;99.90;;;;;;7331904;19;110644;-68
2023/10/07 08:57:18;;;;;;;;;;;19.00;99.90;;;;;;7336573;19;108798;-67
2023/10/07 08:59:49;;;;;;;;;;;19.10;99.90;;;;;;7333250;19;109271;-68
2023/10/07 09:02:26;;;;;;;;;;;19.20;99.90;;;;;;7334107;19;112652;-67
2023/10/07 09:04:55;;;;;;;;;;;19.20;99.90;;;;;;7334643;19;112435;-67
2023/10/07 09:07:22;;;;;;;;;;;19.30;99.90;;;;;;7331499;19;110485;-67
2023/10/07 09:09:49;;;;;;;;;;;19.30;99.90;;;;;;7333312;19;108586;-68
2023/10/07 09:12:31;;;;;;;;;;;19.40;99.90;;;;;;7329359;19;111502;-67
2023/10/07 09:15:00;;;;;;;;;;;19.50;99.90;;;;;;7330804;19;110105;-68
2023/10/07 09:17:27;;;;;;;;;;;19.60;99.90;;;;;;7334959;19;108920;-67
2023/10/07 09:19:57;;;;;;;;;;;19.60;99.90;;;;;;7332174;19;109765;-68
2023/10/07 09:22:33;;;;;;;;;;;19.70;99.90;;;;;;7335031;19;109276;-68
2023/10/07 09:25:17;;;;;;;;;;;19.70;99.90;;;;;;7333825;19;108674;-68
2023/10/07 09:27:54;;;;;;;;;;;19.90;99.90;;;;;;7337739;19;109064;-69
2023/10/07 09:30:37;;;;;;;;;;;19.90;99.90;;;;;;7334912;19;108375;-68
2023/10/07 09:33:17;;;;;;;;;;;20.00;99.90;;;;;;7333390;19;112570;-68
2023/10/07 09:35:46;;;;;;;;;;;20.00;99.90;;;;;;7333334;19;110158;-68
2023/10/07 09:38:41;;;;;;;;;;;20.10;99.90;;;;;;7333434;19;109429;-68
2023/10/07 09:41:23;;;;;;;;;;;20.20;99.90;;;;;;7332978;19;109415;-68
2023/10/07 09:43:57;;;;;;;;;;;20.20;99.90;;;;;;7332434;19;109586;-68
2023/10/07 09:46:25;;;;;;;;;;;20.30;99.90;;;;;;7330456;19;108707;-68
2023/10/07 09:48:58;;;;;;;;;;;20.40;99.90;;;;;;7331665;19;109894;-68
2023/10/07 09:51:29;;;;;;;;;;;20.40;99.90;;;;;;7336978;19;108897;-68
2023/10/07 09:53:57;;;;;;;;;;;20.50;99.90;;;;;;7333793;19;108715;-68
2023/10/07 09:56:33;;;;;;;;;;;20.60;99.90;;;;;;7331978;19;109323;-68
2023/10/07 09:59:17;;;;;;;;;;;20.60;99.90;;;;;;7338359;19;110347;-70
2023/10/07 10:02:05;;;;;;;;;;;20.60;99.90;;;;;;7336919;19;109024;-68
2023/10/07 10:04:46;;;;;;;;;;;20.70;99.90;;;;;;7337941;19;111104;-68
2023/10/07 10:07:43;;;;;;;;;;;20.80;99.90;;;;;;7339933;19;108926;-68
2023/10/07 10:10:14;;;;;;;;;;;20.80;99.90;;;;;;7338906;19;108852;-68
2023/10/07 10:13:06;;;;;;;;;;;20.90;99.90;;;;;;7338982;19;111380;-68
2023/10/07 10:18:51;;;;;;;;;;;21.00;99.90;;;;;;7335946;19;110229;-69
2023/10/07 10:21:04;;;;;;;;;;;21.10;99.90;;;;;;7341967;19;108708;-68
2023/10/07 10:23:35;;;;;;;;;;;21.20;99.90;;;;;;7337463;19;109221;-68
2023/10/07 10:26:13;;;;;;;;;;;21.20;99.90;;;;;;7337973;19;109494;-69
2023/10/07 10:28:41;;;;;;;;;;;21.30;99.90;;;;;;7334448;19;108656;-68
2023/10/07 10:31:17;;;;;;;;;;;21.30;99.90;;;;;;7337198;19;109249;-68
2023/10/07 10:33:47;;;;;;;;;;;21.50;99.90;;;;;;7337202;19;110224;-68
2023/10/07 10:36:18;;;;;;;;;;;21.50;99.90;;;;;;7339383;19;109893;-68
2023/10/07 10:38:45;;;;;;;;;;;21.60;99.90;;;;;;7342790;19;109404;-68
2023/10/07 10:41:15;;;;;;;;;;;21.60;99.90;;;;;;7337501;19;108839;-68
2023/10/07 10:43:42;;;;;;;;;;;21.70;99.90;;;;;;7336912;19;109608;-69
2023/10/07 10:46:10;;;;;;;;;;;21.70;99.90;;;;;;7338005;19;110059;-68
2023/10/07 10:48:39;;;;;;;;;;;21.80;99.90;;;;;;7334343;19;109391;-68
2023/10/07 10:51:08;;;;;;;;;;;21.90;99.90;;;;;;7335362;19;111333;-68
2023/10/07 10:53:36;;;;;;;;;;;21.90;99.90;;;;;;7334606;19;110407;-69
2023/10/07 10:56:03;;;;;;;;;;;22.00;99.90;;;;;;7338908;19;108758;-71
2023/10/07 10:58:31;;;;;;;;;;;22.00;99.90;;;;;;7339055;19;110163;-69
2023/10/07 11:00:58;;;;;;;;;;;22.00;99.90;;;;;;7344077;19;110156;-69
2023/10/07 11:03:25;;;;;;;;;;;22.00;99.90;;;;;;7338404;19;109799;-69
2023/10/07 11:05:54;;;;;;;;;;;22.10;99.90;;;;;;7339199;19;109470;-69
2023/10/07 11:08:24;;;;;;;;;;;22.20;99.90;;;;;;7338182;19;108796;-69
2023/10/07 11:10:57;;;;;;;;;;;22.20;99.90;;;;;;7334573;19;112751;-70
2023/10/07 11:13:24;;;;;;;;;;;22.30;99.90;;;;;;7337002;19;109734;-69
2023/10/07 11:16:04;;;;;;;;;;;22.40;99.90;;;;;;7336456;19;108805;-71
2023/10/07 11:18:33;;;;;;;;;;;22.40;99.90;;;;;;7336949;19;109468;-69
2023/10/07 11:21:02;;;;;;;;;;;22.50;99.90;;;;;;7347052;19;109142;-69
2023/10/07 11:23:29;;;;;;;;;;;22.50;99.90;;;;;;7334245;19;108924;-69
2023/10/07 11:25:56;;;;;;;;;;;22.60;99.90;;;;;;7335360;19;109619;-72
2023/10/07 11:28:26;;;;;;;;;;;22.70;99.90;;;;;;7336844;19;108435;-73
2023/10/07 11:30:53;;;;;;;;;;;22.80;99.90;;;;;;7338391;19;110158;-73
2023/10/07 11:33:20;;;;;;;;;;;22.80;99.90;;;;;;7337746;19;109190;-70
2023/10/07 11:35:58;;;;;;;;;;;22.80;99.90;;;;;;7340868;19;109005;-73
2023/10/07 11:38:26;;;;;;;;;;;22.90;99.90;;;;;;7337342;19;109330;-71
2023/10/07 11:40:55;;;;;;;;;;;23.00;99.90;;;;;;7340555;19;110585;-70
2023/10/07 11:43:24;;;;;;;;;;;23.00;99.90;;;;;;7340093;19;109430;-74
2023/10/07 11:45:51;;;;;;;;;;;23.20;99.90;;;;;;7334581;19;112447;-71
2023/10/07 11:48:21;;;;;;;;;;;23.20;99.90;;;;;;7335916;19;108903;-71
2023/10/07 11:50:48;;;;;;;;;;;23.20;99.90;;;;;;7337180;19;109178;-72
2023/10/07 11:53:19;;;;;;;;;;;23.30;99.90;;;;;;7333243;19;110728;-71
2023/10/07 11:55:47;;;;;;;;;;;23.40;99.90;;;;;;7336649;19;109433;-71
2023/10/07 11:58:15;;;;;;;;;;;23.40;99.90;;;;;;7339906;19;109374;-72
2023/10/07 12:00:42;;;;;;;;;;;23.50;99.90;;;;;;7334603;19;111549;-70
2023/10/07 12:03:10;;;;;;;;;;;23.60;99.90;;;;;;7334946;19;108412;-70
2023/10/07 12:05:40;;;;;;;;;;;23.70;99.90;;;;;;7339741;19;109035;-71
2023/10/07 12:08:11;;;;;;;;;;;23.80;99.90;;;;;;7331370;19;108916;-73
2023/10/07 12:10:39;;;;;;;;;;;23.80;99.90;;;;;;7334314;19;108994;-71
2023/10/07 12:13:07;;;;;;;;;;;23.90;99.90;;;;;;7338279;19;109276;-71
2023/10/07 12:15:34;;;;;;;;;;;24.00;99.90;;;;;;7334262;19;111175;-71
2023/10/07 12:18:09;;;;;;;;;;;24.10;99.90;;;;;;7334410;19;108407;-71
2023/10/07 12:20:37;;;;;;;;;;;24.20;99.90;;;;;;7333463;19;109204;-70
2023/10/07 12:23:05;;;;;;;;;;;24.30;99.90;;;;;;7337079;19;109061;-70
2023/10/07 12:25:32;;;;;;;;;;;24.30;99.90;;;;;;7335085;19;108817;-70
2023/10/07 12:28:01;;;;;;;;;;;24.50;99.90;;;;;;7337974;19;110753;-71
2023/10/07 12:30:29;;;;;;;;;;;24.50;99.90;;;;;;7334176;19;109804;-71
2023/10/07 12:32:57;;;;;;;;;;;24.50;99.90;;;;;;7336797;19;110294;-70
2023/10/07 12:35:25;;;;;;;;;;;24.50;99.90;;;;;;7332461;19;110102;-70
2023/10/07 12:37:52;;;;;;;;;;;24.60;99.90;;;;;;7332159;19;109117;-71
2023/10/07 12:40:20;;;;;;;;;;;24.60;99.90;;;;;;7335565;19;109102;-70
2023/10/07 12:42:51;;;;;;;;;;;24.60;99.90;;;;;;7332980;19;108561;-70
2023/10/07 12:45:19;;;;;;;;;;;24.60;99.90;;;;;;7332233;19;108837;-71
2023/10/07 12:47:51;;;;;;;;;;;24.60;99.90;;;;;;7336457;19;110244;-70
2023/10/07 12:50:41;;;;;;;;;;;24.60;99.90;;;;;;7337376;19;108773;-71
2023/10/07 12:53:08;;;;;;;;;;;24.60;99.90;;;;;;7335770;19;109981;-71
2023/10/07 12:55:35;;;;;;;;;;;24.60;99.90;;;;;;7336558;19;108822;-71
2023/10/07 12:58:17;;;;;;;;;;;24.60;99.90;;;;;;7337583;19;109982;-71
2023/10/07 13:00:44;;;;;;;;;;;24.70;99.90;;;;;;7332862;19;112442;-71
2023/10/07 13:03:12;;;;;;;;;;;24.80;99.90;;;;;;7334310;19;108964;-72
2023/10/07 13:05:42;;;;;;;;;;;24.90;99.90;;;;;;7335989;19;112667;-71
2023/10/07 13:08:12;;;;;;;;;;;25.00;99.90;;;;;;7334908;19;109818;-69
2023/10/07 13:10:40;;;;;;;;;;;25.10;99.90;;;;;;7334502;19;112322;-69
2023/10/07 13:13:07;;;;;;;;;;;25.10;99.90;;;;;;7340649;19;108854;-69
2023/10/07 13:15:35;;;;;;;;;;;25.20;99.90;;;;;;7334407;19;108646;-71
2023/10/07 13:18:02;;;;;;;;;;;25.40;99.90;;;;;;7333336;19;110077;-69
2023/10/07 13:20:30;;;;;;;;;;;25.40;99.90;;;;;;7334425;19;111749;-69
2023/10/07 13:22:58;;;;;;;;;;;25.60;99.90;;;;;;7334201;19;110722;-69
2023/10/07 13:25:26;;;;;;;;;;;25.60;99.90;;;;;;7329828;19;108855;-68
2023/10/07 13:27:56;;;;;;;;;;;25.70;99.90;;;;;;7334592;19;110198;-68
2023/10/07 13:30:26;;;;;;;;;;;25.70;99.90;;;;;;7330331;19;108624;-68
2023/10/07 13:32:54;;;;;;;;;;;25.70;99.90;;;;;;7336727;19;108830;-68
2023/10/07 13:35:22;;;;;;;;;;;25.80;99.90;;;;;;7331333;19;110033;-68
2023/10/07 13:37:52;;;;;;;;;;;25.80;99.90;;;;;;7333435;19;108609;-68
2023/10/07 13:40:20;;;;;;;;;;;25.80;99.90;;;;;;7331469;19;109217;-68
2023/10/07 13:42:49;;;;;;;;;;;25.80;99.90;;;;;;7336130;19;109173;-68
2023/10/07 13:45:23;;;;;;;;;;;25.70;99.90;;;;;;7330927;19;109164;-68
2023/10/07 13:47:51;;;;;;;;;;;25.70;99.90;;;;;;7330998;19;110287;-67
2023/10/07 13:50:25;;;;;;;;;;;25.70;99.90;;;;;;7334396;19;108973;-68
2023/10/07 13:53:11;;;;;;;;;;;25.70;99.90;;;;;;7333240;19;110001;-69
2023/10/07 13:58:14;;;;;;;;;;;25.50;99.90;;;;;;7333723;19;110716;-69
2023/10/07 14:00:51;;;;;;;;;;;25.50;99.90;;;;;;7331087;19;110734;-67
2023/10/07 14:03:19;;;;;;;;;;;25.50;99.90;;;;;;7329744;19;110482;-67
2023/10/07 14:05:58;;;;;;;;;;;25.40;99.90;;;;;;7326903;19;114839;-68
2023/10/07 14:08:28;;;;;;;;;;;25.50;99.90;;;;;;7322544;19;110891;-68
2023/10/07 14:10:59;;;;;;;;;;;25.50;99.90;;;;;;7326205;19;108854;-68
2023/10/07 14:13:32;;;;;;;;;;;25.60;99.90;;;;;;7330699;19;109084;-67
2023/10/07 14:16:00;;;;;;;;;;;25.60;99.90;;;;;;7327692;19;109859;-68
2023/10/07 14:18:45;;;;;;;;;;;25.60;99.90;;;;;;7327610;19;109419;-67
2023/10/07 14:21:12;;;;;;;;;;;25.70;99.90;;;;;;7331235;19;109097;-67
2023/10/07 14:23:40;;;;;;;;;;;25.70;99.90;;;;;;7320329;19;109879;-68
2023/10/07 14:26:12;;;;;;;;;;;25.80;99.90;;;;;;7331423;19;109490;-68
2023/10/07 14:28:46;;;;;;;;;;;25.80;99.90;;;;;;7333335;19;109455;-67
2023/10/07 14:31:16;;;;;;;;;;;25.90;99.90;;;;;;7331209;19;108391;-68
2023/10/07 14:33:46;;;;;;;;;;;25.90;99.90;;;;;;7332394;19;109848;-67
2023/10/07 14:36:13;;;;;;;;;;;25.90;99.90;;;;;;7329654;19;109400;-68
2023/10/07 14:38:42;;;;;;;;;;;26.00;99.90;;;;;;7333934;19;109356;-68
2023/10/07 14:41:10;;;;;;;;;;;26.00;99.90;;;;;;7337536;19;110730;-68
2023/10/07 14:43:37;;;;;;;;;;;26.00;99.90;;;;;;7337463;19;109081;-68
2023/10/07 14:46:04;;;;;;;;;;;26.00;99.90;;;;;;7341131;19;108430;-68
2023/10/07 14:48:34;;;;;;;;;;;26.10;99.90;;;;;;7337137;19;110687;-68
2023/10/07 14:51:05;;;;;;;;;;;26.10;99.90;;;;;;7337951;19;111222;-68
2023/10/07 14:53:33;;;;;;;;;;;26.10;99.90;;;;;;7340942;19;110311;-68
2023/10/07 14:56:15;;;;;;;;;;;26.20;99.90;;;;;;7341851;19;110599;-68
2023/10/07 14:58:43;;;;;;;;;;;26.30;99.90;;;;;;7339231;19;109766;-68
2023/10/07 15:01:13;;;;;;;;;;;26.30;99.90;;;;;;7338194;19;110146;-68
2023/10/07 15:03:41;;;;;;;;;;;26.30;99.90;;;;;;7344397;19;109649;-68
2023/10/07 15:06:10;;;;;;;;;;;26.30;99.90;;;;;;7339380;19;110047;-68
2023/10/07 15:08:38;;;;;;;;;;;26.30;99.90;;;;;;7336382;19;110935;-69
2023/10/07 15:11:07;;;;;;;;;;;26.30;99.90;;;;;;7337230;19;109194;-68
2023/10/07 15:13:35;;;;;;;;;;;26.30;99.90;;;;;;7338843;19;109585;-68